createdAt,value
2018-04-18T00:02:49.298Z,14.83
2018-04-18T00:07:23.246Z,6.77
2018-04-18T00:11:56.464Z,7.37
2018-04-18T00:16:29.677Z,10.17
2018-04-18T00:21:02.878Z,8.83
2018-04-18T00:25:36.086Z,7.53
2018-04-18T00:30:09.351Z,6.60
2018-04-18T00:34:42.738Z,12.30
2018-04-18T00:39:15.934Z,9.33
2018-04-18T00:43:49.147Z,31.87
2018-04-18T00:48:22.357Z,17.47
2018-04-18T00:52:55.574Z,9.03
2018-04-18T00:57:28.786Z,6.80
2018-04-18T01:02:02.027Z,7.50
2018-04-18T01:06:35.965Z,7.10
2018-04-18T01:11:09.195Z,6.50
2018-04-18T01:15:42.396Z,8.87
2018-04-18T01:20:15.597Z,6.43
2018-04-18T01:24:48.809Z,5.63
2018-04-18T01:29:22.017Z,16.73
2018-04-18T01:33:55.231Z,16.53
2018-04-18T01:38:28.474Z,6.97
2018-04-18T01:43:01.646Z,6.20
2018-04-18T01:47:34.874Z,22.83
2018-04-18T01:52:08.067Z,8.03
2018-04-18T01:56:41.294Z,7.40
2018-04-18T02:01:14.500Z,7.10
2018-04-18T02:05:47.717Z,7.03
2018-04-18T02:10:20.935Z,6.07
2018-04-18T02:14:54.886Z,7.83
2018-04-18T02:19:28.104Z,10.43
2018-04-18T02:24:01.293Z,8.70
2018-04-18T02:28:34.802Z,7.53
2018-04-18T02:33:08.091Z,7.73
2018-04-18T02:37:42.053Z,7.40
2018-04-18T02:42:15.231Z,7.67
2018-04-18T02:46:49.205Z,7.23
2018-04-18T02:51:22.386Z,7.07
2018-04-18T02:55:55.596Z,7.07
2018-04-18T03:00:28.815Z,8.63
2018-04-18T03:05:01.996Z,7.97
2018-04-18T03:09:35.205Z,8.40
2018-04-18T03:14:08.454Z,8.43
2018-04-18T03:18:41.658Z,8.77
2018-04-18T03:23:14.855Z,11.77
2018-04-18T03:27:48.079Z,10.10
2018-04-18T03:32:21.258Z,9.37
2018-04-18T03:36:54.470Z,9.80
2018-04-18T03:41:27.687Z,9.80
2018-04-18T03:46:00.926Z,10.33
2018-04-18T03:50:34.179Z,10.33
2018-04-18T03:55:07.408Z,9.27
2018-04-18T03:59:40.693Z,8.93
2018-04-18T04:04:13.946Z,9.90
2018-04-18T04:08:47.107Z,9.87
2018-04-18T04:13:20.375Z,10.60
2018-04-18T04:18:05.334Z,10.47
2018-04-18T04:22:50.412Z,10.13
2018-04-18T04:27:23.594Z,9.97
2018-04-18T04:31:56.806Z,10.23
2018-04-18T04:36:29.991Z,10.73
2018-04-18T04:41:03.209Z,11.30
2018-04-18T04:45:37.264Z,10.97
2018-04-18T04:50:11.278Z,9.83
2018-04-18T04:54:44.466Z,11.73
2018-04-18T04:59:17.931Z,11.90
2018-04-18T05:03:51.168Z,11.27
2018-04-18T05:08:25.173Z,12.10
2018-04-18T05:12:59.140Z,14.40
2018-04-18T05:17:32.386Z,12.93
2018-04-18T05:22:05.651Z,11.10
2018-04-18T05:26:38.942Z,12.03
2018-04-18T05:31:12.190Z,16.63
2018-04-18T05:35:45.497Z,15.23
2018-04-18T05:40:18.803Z,15.10
2018-04-18T05:44:52.054Z,12.50
2018-04-18T05:49:25.301Z,11.40
2018-04-18T05:53:58.515Z,11.43
2018-04-18T05:58:32.407Z,12.27
2018-04-18T06:03:06.395Z,11.63
2018-04-18T06:07:39.611Z,12.17
2018-04-18T06:12:13.443Z,11.30
2018-04-18T06:16:47.422Z,10.77
2018-04-18T06:21:20.636Z,11.60
2018-04-18T06:25:54.066Z,11.37
2018-04-18T06:30:27.267Z,11.43
2018-04-18T06:35:00.586Z,11.77
2018-04-18T06:39:34.359Z,12.13
2018-04-18T06:44:07.568Z,12.00
2018-04-18T06:48:40.744Z,12.13
2018-04-18T06:53:14.705Z,11.73
2018-04-18T06:57:49.260Z,11.83
2018-04-18T07:02:22.703Z,11.83
2018-04-18T07:06:56.866Z,11.83
2018-04-18T07:11:30.456Z,11.73
2018-04-18T07:16:05.018Z,10.75
2018-04-18T07:20:38.238Z,11.80
2018-04-18T07:25:11.478Z,12.20
2018-04-18T07:29:46.211Z,11.38
2018-04-18T07:34:19.431Z,10.63
2018-04-18T07:38:52.657Z,10.50
2018-04-18T07:43:26.602Z,10.60
2018-04-18T07:48:00.558Z,9.23
2018-04-18T07:52:34.698Z,10.02
2018-04-18T07:57:07.886Z,9.68
2018-04-18T08:01:41.232Z,9.20
2018-04-18T08:06:14.436Z,8.52
2018-04-18T08:10:47.657Z,8.95
2018-04-18T08:15:20.844Z,8.13
2018-04-18T08:19:54.598Z,9.40
2018-04-18T08:24:27.763Z,8.80
2018-04-18T08:29:00.954Z,8.38
2018-04-18T08:33:34.151Z,8.63
2018-04-18T08:38:07.339Z,9.30
2018-04-18T08:42:41.280Z,7.28
2018-04-18T08:47:14.490Z,7.47
2018-04-18T08:51:47.678Z,6.07
2018-04-18T08:56:20.887Z,6.60
2018-04-18T09:00:54.851Z,6.28
2018-04-18T09:05:28.025Z,7.03
2018-04-18T09:10:01.227Z,8.55
2018-04-18T09:14:34.397Z,7.80
2018-04-18T09:19:07.597Z,7.20
2018-04-18T09:23:40.772Z,7.28
2018-04-18T09:28:13.970Z,7.07
2018-04-18T09:32:47.223Z,7.55
2018-04-18T09:37:20.407Z,6.70
2018-04-18T09:41:53.664Z,7.78
2018-04-18T09:46:27.674Z,8.00
2018-04-18T09:51:01.661Z,7.03
2018-04-18T09:55:34.899Z,7.30
2018-04-18T10:00:08.886Z,7.28
2018-04-18T10:04:45.065Z,7.15
2018-04-18T10:09:18.260Z,6.25
2018-04-18T10:13:51.446Z,6.32
2018-04-18T10:18:25.255Z,5.97
2018-04-18T10:22:59.270Z,6.12
2018-04-18T10:27:32.475Z,6.30
2018-04-18T10:32:05.745Z,6.53
2018-04-18T10:36:38.996Z,5.90
2018-04-18T10:41:12.967Z,5.25
2018-04-18T10:45:46.189Z,5.87
2018-04-18T10:50:19.407Z,5.30
2018-04-18T10:54:52.643Z,6.55
2018-04-18T10:59:26.659Z,6.80
2018-04-18T11:03:59.870Z,6.22
2018-04-18T11:08:33.095Z,5.90
2018-04-18T11:13:07.109Z,6.30
2018-04-18T11:17:41.104Z,6.95
2018-04-18T11:22:14.314Z,6.55
2018-04-18T11:26:47.553Z,7.15
2018-04-18T11:31:21.535Z,6.82
2018-04-18T11:35:54.773Z,6.95
2018-04-18T11:40:28.048Z,7.85
2018-04-18T11:45:01.234Z,7.12
2018-04-18T11:49:34.470Z,8.20
2018-04-18T11:54:07.674Z,7.65
2018-04-18T11:58:40.911Z,7.70
2018-04-18T12:03:14.943Z,8.13
2018-04-18T12:07:48.917Z,6.78
2018-04-18T12:12:22.121Z,7.45
2018-04-18T12:16:55.332Z,7.03
2018-04-18T12:21:28.513Z,6.90
2018-04-18T12:26:01.729Z,6.32
2018-04-18T12:30:34.944Z,7.07
2018-04-18T12:35:08.151Z,6.47
2018-04-18T12:39:41.347Z,6.35
2018-04-18T12:44:14.549Z,6.32
2018-04-18T12:48:47.829Z,5.68
2018-04-18T12:53:21.906Z,5.70
2018-04-18T12:57:55.091Z,5.18
2018-04-18T13:02:28.275Z,4.95
2018-04-18T13:07:02.250Z,4.70
2018-04-18T13:11:35.405Z,4.28
2018-04-18T13:16:20.741Z,4.00
2018-04-18T13:20:55.488Z,3.37
2018-04-18T13:25:28.869Z,2.67
2018-04-18T13:30:03.289Z,2.80
2018-04-18T13:34:37.288Z,2.53
2018-04-18T13:39:11.256Z,3.25
2018-04-18T13:43:44.473Z,2.60
2018-04-18T13:48:17.753Z,2.67
2018-04-18T13:52:51.734Z,2.95
2018-04-18T13:57:24.981Z,3.00
2018-04-18T14:01:59.001Z,2.35
2018-04-18T14:06:32.979Z,2.15
2018-04-18T14:11:06.183Z,2.28
2018-04-18T14:15:39.394Z,2.42
2018-04-18T14:20:12.575Z,2.33
2018-04-18T14:24:45.785Z,2.10
2018-04-18T14:29:19.163Z,2.10
2018-04-18T14:33:53.127Z,2.20
2018-04-18T14:38:26.659Z,2.10
2018-04-18T14:43:00.328Z,2.20
2018-04-18T14:47:34.958Z,2.08
2018-04-18T14:52:08.268Z,2.05
2018-04-18T14:56:41.468Z,2.10
2018-04-18T15:01:14.668Z,2.08
2018-04-18T15:05:47.862Z,2.22
2018-04-18T15:10:24.626Z,2.42
2018-04-18T15:14:58.122Z,2.65
2018-04-18T15:19:31.323Z,2.47
2018-04-18T15:24:04.505Z,3.00
2018-04-18T15:28:38.463Z,2.95
2018-04-18T15:33:11.645Z,2.70
2018-04-18T15:37:45.589Z,2.97
2018-04-18T15:42:18.767Z,3.50
2018-04-18T15:46:52.709Z,3.40
2018-04-18T15:51:25.947Z,2.72
2018-04-18T15:55:59.134Z,2.67
2018-04-18T16:00:32.983Z,2.65
2018-04-18T16:05:06.176Z,2.70
2018-04-18T16:09:39.362Z,3.12
2018-04-18T16:14:12.577Z,2.65
2018-04-18T16:18:45.855Z,2.53
2018-04-18T16:23:19.063Z,2.45
2018-04-18T16:27:52.986Z,2.60
2018-04-18T16:32:26.990Z,2.50
2018-04-18T16:37:00.166Z,2.60
2018-04-18T16:41:33.354Z,2.33
2018-04-18T16:46:06.550Z,2.53
2018-04-18T16:50:39.787Z,2.30
2018-04-18T16:55:12.973Z,2.83
2018-04-18T16:59:46.193Z,2.70
2018-04-18T17:04:19.391Z,2.65
2018-04-18T17:08:52.613Z,2.55
2018-04-18T17:13:25.837Z,2.70
2018-04-18T17:17:59.045Z,2.33
2018-04-18T17:22:32.233Z,2.70
2018-04-18T17:27:05.439Z,3.17
2018-04-18T17:31:38.674Z,3.20
2018-04-18T17:36:12.639Z,2.80
2018-04-18T17:40:45.877Z,3.08
2018-04-18T17:45:19.091Z,3.35
2018-04-18T17:49:52.268Z,3.58
2018-04-18T17:54:25.547Z,4.25
2018-04-18T17:58:59.534Z,3.97
2018-04-18T18:03:32.743Z,3.75
2018-04-18T18:08:05.961Z,3.42
2018-04-18T18:12:39.159Z,3.78
2018-04-18T18:17:12.367Z,3.42
2018-04-18T18:21:45.709Z,3.80
2018-04-18T18:26:19.700Z,4.37
2018-04-18T18:30:52.900Z,4.00
2018-04-18T18:35:26.119Z,4.10
2018-04-18T18:39:59.334Z,3.97
2018-04-18T18:44:33.287Z,4.20
2018-04-18T18:49:08.489Z,4.72
2018-04-18T18:53:41.677Z,3.80
2018-04-18T18:58:14.877Z,4.03
2018-04-18T19:02:48.093Z,4.40
2018-04-18T19:07:21.362Z,3.75
2018-04-18T19:11:55.300Z,4.20
2018-04-18T19:16:29.287Z,3.83
2018-04-18T19:21:03.273Z,3.87
2018-04-18T19:25:36.454Z,3.75
2018-04-18T19:30:10.412Z,4.07
2018-04-18T19:34:43.602Z,4.10
2018-04-18T19:39:16.862Z,4.37
2018-04-18T19:43:50.833Z,4.93
2018-04-18T19:48:24.050Z,4.72
2018-04-18T19:52:57.218Z,4.80
2018-04-18T19:57:31.176Z,4.50
2018-04-18T20:02:04.356Z,4.70
2018-04-18T20:06:38.343Z,4.32
2018-04-18T20:11:11.581Z,4.30
2018-04-18T20:15:45.530Z,4.37
2018-04-18T20:20:18.742Z,5.10
2018-04-18T20:24:53.478Z,4.22
2018-04-18T20:29:26.746Z,4.10
2018-04-18T20:33:59.983Z,4.10
2018-04-18T20:38:33.173Z,4.40
2018-04-18T20:43:06.381Z,3.97
2018-04-18T20:47:40.582Z,4.68
2018-04-18T20:52:13.777Z,4.45
2018-04-18T20:56:47.187Z,4.37
2018-04-18T21:01:20.387Z,4.07
2018-04-18T21:05:53.650Z,4.57
2018-04-18T21:10:27.755Z,4.87
2018-04-18T21:15:00.950Z,4.85
2018-04-18T21:19:34.110Z,4.93
2018-04-18T21:24:07.310Z,5.00
2018-04-18T21:28:40.498Z,6.45
2018-04-18T21:33:14.797Z,4.82
2018-04-18T21:37:47.978Z,4.57
2018-04-18T21:42:21.190Z,4.90
2018-04-18T21:46:54.375Z,4.72
2018-04-18T21:51:27.587Z,4.72
2018-04-18T21:56:00.772Z,4.87
2018-04-18T22:00:34.731Z,5.40
2018-04-18T22:05:07.951Z,4.90
2018-04-18T22:09:41.570Z,4.53
2018-04-18T22:14:14.778Z,4.80
2018-04-18T22:18:47.991Z,6.30
2018-04-18T22:23:21.189Z,6.07
2018-04-18T22:27:54.351Z,6.33
2018-04-18T22:32:27.545Z,6.97
2018-04-18T22:37:01.505Z,7.60
2018-04-18T22:41:34.682Z,8.80
2018-04-18T22:46:08.645Z,9.80
2018-04-18T22:50:41.834Z,7.50
2018-04-18T22:55:15.075Z,8.27
2018-04-18T22:59:48.275Z,8.37
2018-04-18T23:04:21.471Z,8.50
2018-04-18T23:08:54.677Z,7.07
2018-04-18T23:13:27.854Z,6.57
2018-04-18T23:18:01.073Z,6.97
2018-04-18T23:22:34.267Z,7.50
2018-04-18T23:27:07.458Z,6.87
2018-04-18T23:31:41.395Z,6.97
2018-04-18T23:36:14.578Z,6.73
2018-04-18T23:40:47.799Z,7.37
2018-04-18T23:45:21.782Z,7.37
2018-04-18T23:49:54.966Z,6.23
2018-04-18T23:54:28.198Z,9.30
2018-04-18T23:59:01.356Z,6.40
